sensor_id;sensor_type;location;lat;lon;timestamp;temperature;humidity
80210;DHT22;69529;37.974;23.708;2023-04-23T00:00:21;23.60;41.70
80210;DHT22;69529;37.974;23.708;2023-04-23T00:02:51;23.60;41.80
80210;DHT22;69529;37.974;23.708;2023-04-23T00:05:20;23.60;41.80
80210;DHT22;69529;37.974;23.708;2023-04-23T00:07:48;23.60;41.80
80210;DHT22;69529;37.974;23.708;2023-04-23T00:10:17;23.60;41.90
80210;DHT22;69529;37.974;23.708;2023-04-23T00:12:45;23.60;42.00
80210;DHT22;69529;37.974;23.708;2023-04-23T00:15:13;23.60;41.90
80210;DHT22;69529;37.974;23.708;2023-04-23T00:17:41;23.60;41.90
80210;DHT22;69529;37.974;23.708;2023-04-23T00:20:09;23.60;41.80
80210;DHT22;69529;37.974;23.708;2023-04-23T00:22:37;23.50;42.00
80210;DHT22;69529;37.974;23.708;2023-04-23T00:25:05;23.40;41.90
80210;DHT22;69529;37.974;23.708;2023-04-23T00:27:33;23.40;41.80
80210;DHT22;69529;37.974;23.708;2023-04-23T00:30:00;23.40;41.60
80210;DHT22;69529;37.974;23.708;2023-04-23T00:32:29;23.30;41.60
80210;DHT22;69529;37.974;23.708;2023-04-23T00:34:57;23.30;41.50
80210;DHT22;69529;37.974;23.708;2023-04-23T00:37:24;23.30;41.40
80210;DHT22;69529;37.974;23.708;2023-04-23T00:39:52;23.40;41.40
80210;DHT22;69529;37.974;23.708;2023-04-23T00:42:20;23.40;41.20
80210;DHT22;69529;37.974;23.708;2023-04-23T00:44:48;23.40;41.00
80210;DHT22;69529;37.974;23.708;2023-04-23T00:47:17;23.40;41.00
80210;DHT22;69529;37.974;23.708;2023-04-23T00:49:46;23.40;41.00
80210;DHT22;69529;37.974;23.708;2023-04-23T00:52:14;23.50;41.00
80210;DHT22;69529;37.974;23.708;2023-04-23T00:54:41;23.50;41.00
80210;DHT22;69529;37.974;23.708;2023-04-23T00:57:10;23.50;40.90
80210;DHT22;69529;37.974;23.708;2023-04-23T00:59:38;23.40;40.90
80210;DHT22;69529;37.974;23.708;2023-04-23T01:02:05;23.50;40.90
80210;DHT22;69529;37.974;23.708;2023-04-23T01:04:34;23.50;40.90
80210;DHT22;69529;37.974;23.708;2023-04-23T01:07:03;23.50;40.90
80210;DHT22;69529;37.974;23.708;2023-04-23T01:09:31;23.50;40.90
80210;DHT22;69529;37.974;23.708;2023-04-23T01:11:59;23.50;40.90
80210;DHT22;69529;37.974;23.708;2023-04-23T01:14:28;23.50;40.80
80210;DHT22;69529;37.974;23.708;2023-04-23T01:16:56;23.50;40.70
80210;DHT22;69529;37.974;23.708;2023-04-23T01:19:24;23.50;40.70
80210;DHT22;69529;37.974;23.708;2023-04-23T01:21:53;23.50;40.70
80210;DHT22;69529;37.974;23.708;2023-04-23T01:24:22;23.50;40.70
80210;DHT22;69529;37.974;23.708;2023-04-23T01:26:49;23.50;40.60
80210;DHT22;69529;37.974;23.708;2023-04-23T01:29:18;23.60;40.70
80210;DHT22;69529;37.974;23.708;2023-04-23T01:31:46;23.60;40.60
80210;DHT22;69529;37.974;23.708;2023-04-23T01:34:14;23.60;40.70
80210;DHT22;69529;37.974;23.708;2023-04-23T01:36:43;23.60;40.70
80210;DHT22;69529;37.974;23.708;2023-04-23T01:39:11;23.60;40.70
80210;DHT22;69529;37.974;23.708;2023-04-23T01:41:39;23.60;40.80
80210;DHT22;69529;37.974;23.708;2023-04-23T01:44:07;23.60;40.90
80210;DHT22;69529;37.974;23.708;2023-04-23T01:46:35;23.60;40.90
80210;DHT22;69529;37.974;23.708;2023-04-23T01:49:03;23.60;41.00
80210;DHT22;69529;37.974;23.708;2023-04-23T01:51:31;23.60;40.90
80210;DHT22;69529;37.974;23.708;2023-04-23T01:53:58;23.60;40.90
80210;DHT22;69529;37.974;23.708;2023-04-23T01:56:27;23.60;40.80
80210;DHT22;69529;37.974;23.708;2023-04-23T01:58:56;23.70;40.90
80210;DHT22;69529;37.974;23.708;2023-04-23T02:01:23;23.60;40.90
80210;DHT22;69529;37.974;23.708;2023-04-23T02:03:51;23.60;40.90
80210;DHT22;69529;37.974;23.708;2023-04-23T02:06:19;23.60;40.90
80210;DHT22;69529;37.974;23.708;2023-04-23T02:08:46;23.70;41.00
80210;DHT22;69529;37.974;23.708;2023-04-23T02:11:15;23.70;40.90
80210;DHT22;69529;37.974;23.708;2023-04-23T02:13:42;23.60;41.10
80210;DHT22;69529;37.974;23.708;2023-04-23T02:16:10;23.70;41.00
80210;DHT22;69529;37.974;23.708;2023-04-23T02:18:38;23.70;41.00
80210;DHT22;69529;37.974;23.708;2023-04-23T02:21:06;23.70;41.00
80210;DHT22;69529;37.974;23.708;2023-04-23T02:23:34;23.70;41.00
80210;DHT22;69529;37.974;23.708;2023-04-23T02:26:02;23.70;40.90
80210;DHT22;69529;37.974;23.708;2023-04-23T02:28:29;23.70;40.90
80210;DHT22;69529;37.974;23.708;2023-04-23T02:30:57;23.60;41.00
80210;DHT22;69529;37.974;23.708;2023-04-23T02:33:24;23.60;41.20
80210;DHT22;69529;37.974;23.708;2023-04-23T02:35:52;23.60;41.10
80210;DHT22;69529;37.974;23.708;2023-04-23T02:38:20;23.60;41.20
80210;DHT22;69529;37.974;23.708;2023-04-23T02:40:47;23.60;41.20
80210;DHT22;69529;37.974;23.708;2023-04-23T02:43:15;23.50;41.20
80210;DHT22;69529;37.974;23.708;2023-04-23T02:45:43;23.60;41.10
80210;DHT22;69529;37.974;23.708;2023-04-23T02:48:11;23.60;41.70
80210;DHT22;69529;37.974;23.708;2023-04-23T02:50:39;23.60;41.00
80210;DHT22;69529;37.974;23.708;2023-04-23T02:53:07;23.60;41.00
80210;DHT22;69529;37.974;23.708;2023-04-23T02:55:35;23.60;41.20
80210;DHT22;69529;37.974;23.708;2023-04-23T02:58:02;23.60;41.80
80210;DHT22;69529;37.974;23.708;2023-04-23T03:00:30;23.60;41.10
80210;DHT22;69529;37.974;23.708;2023-04-23T03:02:57;23.60;41.20
80210;DHT22;69529;37.974;23.708;2023-04-23T03:05:25;23.60;41.30
80210;DHT22;69529;37.974;23.708;2023-04-23T03:07:53;23.50;41.20
80210;DHT22;69529;37.974;23.708;2023-04-23T03:10:21;23.60;41.20
80210;DHT22;69529;37.974;23.708;2023-04-23T03:12:48;23.60;41.20
80210;DHT22;69529;37.974;23.708;2023-04-23T03:15:16;23.60;41.20
80210;DHT22;69529;37.974;23.708;2023-04-23T03:17:44;23.60;41.20
80210;DHT22;69529;37.974;23.708;2023-04-23T03:20:11;23.60;41.30
80210;DHT22;69529;37.974;23.708;2023-04-23T03:22:40;23.60;41.30
80210;DHT22;69529;37.974;23.708;2023-04-23T03:25:08;23.50;41.30
80210;DHT22;69529;37.974;23.708;2023-04-23T03:27:38;23.60;41.30
80210;DHT22;69529;37.974;23.708;2023-04-23T03:30:07;23.60;41.30
80210;DHT22;69529;37.974;23.708;2023-04-23T03:32:36;23.60;41.00
80210;DHT22;69529;37.974;23.708;2023-04-23T03:35:04;23.60;41.20
80210;DHT22;69529;37.974;23.708;2023-04-23T03:37:32;23.50;41.20
80210;DHT22;69529;37.974;23.708;2023-04-23T03:40:00;23.50;41.20
80210;DHT22;69529;37.974;23.708;2023-04-23T03:42:29;23.50;41.20
80210;DHT22;69529;37.974;23.708;2023-04-23T03:44:57;23.50;41.20
80210;DHT22;69529;37.974;23.708;2023-04-23T03:47:25;23.50;41.20
80210;DHT22;69529;37.974;23.708;2023-04-23T03:49:55;23.50;41.10
80210;DHT22;69529;37.974;23.708;2023-04-23T03:52:23;23.50;41.10
80210;DHT22;69529;37.974;23.708;2023-04-23T03:54:51;23.60;41.10
80210;DHT22;69529;37.974;23.708;2023-04-23T03:57:20;23.60;41.10
80210;DHT22;69529;37.974;23.708;2023-04-23T03:59:48;23.60;41.10
80210;DHT22;69529;37.974;23.708;2023-04-23T04:02:17;23.60;41.10
80210;DHT22;69529;37.974;23.708;2023-04-23T04:04:44;23.60;41.10
80210;DHT22;69529;37.974;23.708;2023-04-23T04:07:14;23.60;41.00
80210;DHT22;69529;37.974;23.708;2023-04-23T04:09:41;23.60;41.10
80210;DHT22;69529;37.974;23.708;2023-04-23T04:12:09;23.60;41.00
80210;DHT22;69529;37.974;23.708;2023-04-23T04:14:37;23.70;41.00
80210;DHT22;69529;37.974;23.708;2023-04-23T04:17:05;23.70;40.90
80210;DHT22;69529;37.974;23.708;2023-04-23T04:19:33;23.70;41.00
80210;DHT22;69529;37.974;23.708;2023-04-23T04:22:01;23.70;40.90
80210;DHT22;69529;37.974;23.708;2023-04-23T04:24:29;23.70;40.90
80210;DHT22;69529;37.974;23.708;2023-04-23T04:26:58;23.80;40.90
80210;DHT22;69529;37.974;23.708;2023-04-23T04:29:26;23.70;40.80
80210;DHT22;69529;37.974;23.708;2023-04-23T04:31:54;23.80;40.70
80210;DHT22;69529;37.974;23.708;2023-04-23T04:34:22;23.80;40.70
80210;DHT22;69529;37.974;23.708;2023-04-23T04:36:50;23.90;40.70
80210;DHT22;69529;37.974;23.708;2023-04-23T04:39:19;23.90;40.70
80210;DHT22;69529;37.974;23.708;2023-04-23T04:41:47;24.00;40.60
80210;DHT22;69529;37.974;23.708;2023-04-23T04:44:14;24.00;40.60
80210;DHT22;69529;37.974;23.708;2023-04-23T04:46:42;24.00;40.50
80210;DHT22;69529;37.974;23.708;2023-04-23T04:49:11;24.10;40.50
80210;DHT22;69529;37.974;23.708;2023-04-23T04:51:40;24.10;40.40
80210;DHT22;69529;37.974;23.708;2023-04-23T04:54:08;24.10;40.30
80210;DHT22;69529;37.974;23.708;2023-04-23T04:56:36;24.20;40.20
80210;DHT22;69529;37.974;23.708;2023-04-23T04:59:03;24.30;40.30
80210;DHT22;69529;37.974;23.708;2023-04-23T05:01:32;24.30;40.10
80210;DHT22;69529;37.974;23.708;2023-04-23T05:04:02;24.40;40.00
80210;DHT22;69529;37.974;23.708;2023-04-23T05:06:30;24.30;39.90
80210;DHT22;69529;37.974;23.708;2023-04-23T05:08:58;24.40;39.80
80210;DHT22;69529;37.974;23.708;2023-04-23T05:11:26;24.40;39.80
80210;DHT22;69529;37.974;23.708;2023-04-23T05:13:53;24.50;39.80
80210;DHT22;69529;37.974;23.708;2023-04-23T05:16:21;24.60;39.70
80210;DHT22;69529;37.974;23.708;2023-04-23T05:18:49;24.60;39.60
80210;DHT22;69529;37.974;23.708;2023-04-23T05:21:17;24.50;39.50
80210;DHT22;69529;37.974;23.708;2023-04-23T05:23:45;24.60;39.50
80210;DHT22;69529;37.974;23.708;2023-04-23T05:26:14;24.70;39.30
80210;DHT22;69529;37.974;23.708;2023-04-23T05:28:41;24.70;39.20
80210;DHT22;69529;37.974;23.708;2023-04-23T05:31:09;24.80;39.10
80210;DHT22;69529;37.974;23.708;2023-04-23T05:33:38;24.90;38.80
80210;DHT22;69529;37.974;23.708;2023-04-23T05:36:06;25.10;38.70
80210;DHT22;69529;37.974;23.708;2023-04-23T05:38:33;25.20;38.40
80210;DHT22;69529;37.974;23.708;2023-04-23T05:41:01;25.40;38.00
80210;DHT22;69529;37.974;23.708;2023-04-23T05:43:29;25.50;37.80
80210;DHT22;69529;37.974;23.708;2023-04-23T05:45:56;25.80;37.40
80210;DHT22;69529;37.974;23.708;2023-04-23T05:48:24;25.90;37.20
80210;DHT22;69529;37.974;23.708;2023-04-23T05:50:52;26.10;36.70
80210;DHT22;69529;37.974;23.708;2023-04-23T05:53:20;26.20;36.70
80210;DHT22;69529;37.974;23.708;2023-04-23T05:55:47;26.30;36.40
80210;DHT22;69529;37.974;23.708;2023-04-23T05:58:15;26.40;36.70
80210;DHT22;69529;37.974;23.708;2023-04-23T06:00:44;26.40;36.10
80210;DHT22;69529;37.974;23.708;2023-04-23T06:03:12;26.50;35.90
80210;DHT22;69529;37.974;23.708;2023-04-23T06:05:40;26.50;35.90
80210;DHT22;69529;37.974;23.708;2023-04-23T06:08:08;26.40;36.00
80210;DHT22;69529;37.974;23.708;2023-04-23T06:10:36;26.30;36.20
80210;DHT22;69529;37.974;23.708;2023-04-23T06:13:04;26.10;36.30
80210;DHT22;69529;37.974;23.708;2023-04-23T06:15:31;26.10;36.60
80210;DHT22;69529;37.974;23.708;2023-04-23T06:17:59;25.90;36.60
80210;DHT22;69529;37.974;23.708;2023-04-23T06:20:27;25.90;36.80
80210;DHT22;69529;37.974;23.708;2023-04-23T06:22:55;26.00;36.50
80210;DHT22;69529;37.974;23.708;2023-04-23T06:25:23;26.10;36.30
80210;DHT22;69529;37.974;23.708;2023-04-23T06:27:51;26.10;36.30
80210;DHT22;69529;37.974;23.708;2023-04-23T06:30:19;26.20;36.20
80210;DHT22;69529;37.974;23.708;2023-04-23T06:32:46;26.00;36.30
80210;DHT22;69529;37.974;23.708;2023-04-23T06:35:14;25.90;36.50
80210;DHT22;69529;37.974;23.708;2023-04-23T06:37:42;25.80;36.50
80210;DHT22;69529;37.974;23.708;2023-04-23T06:40:10;25.90;37.10
80210;DHT22;69529;37.974;23.708;2023-04-23T06:42:37;26.00;36.40
80210;DHT22;69529;37.974;23.708;2023-04-23T06:45:06;25.90;36.40
80210;DHT22;69529;37.974;23.708;2023-04-23T06:47:34;25.80;36.70
80210;DHT22;69529;37.974;23.708;2023-04-23T06:50:01;25.80;36.70
80210;DHT22;69529;37.974;23.708;2023-04-23T06:52:31;25.80;36.70
80210;DHT22;69529;37.974;23.708;2023-04-23T06:54:58;25.70;36.70
80210;DHT22;69529;37.974;23.708;2023-04-23T06:57:27;25.60;36.70
80210;DHT22;69529;37.974;23.708;2023-04-23T06:59:54;25.60;36.90
80210;DHT22;69529;37.974;23.708;2023-04-23T07:02:22;25.40;37.10
80210;DHT22;69529;37.974;23.708;2023-04-23T07:04:50;25.40;36.50
80210;DHT22;69529;37.974;23.708;2023-04-23T07:07:17;25.40;37.20
80210;DHT22;69529;37.974;23.708;2023-04-23T07:09:45;25.40;37.30
80210;DHT22;69529;37.974;23.708;2023-04-23T07:12:12;25.30;37.10
80210;DHT22;69529;37.974;23.708;2023-04-23T07:14:40;25.40;37.10
80210;DHT22;69529;37.974;23.708;2023-04-23T07:17:08;25.30;37.30
80210;DHT22;69529;37.974;23.708;2023-04-23T07:19:37;25.40;37.30
80210;DHT22;69529;37.974;23.708;2023-04-23T07:22:04;25.40;37.10
80210;DHT22;69529;37.974;23.708;2023-04-23T07:24:32;25.40;37.00
80210;DHT22;69529;37.974;23.708;2023-04-23T07:27:00;25.40;36.70
80210;DHT22;69529;37.974;23.708;2023-04-23T07:29:28;25.40;36.70
80210;DHT22;69529;37.974;23.708;2023-04-23T07:31:56;25.40;36.80
80210;DHT22;69529;37.974;23.708;2023-04-23T07:34:23;25.40;36.60
80210;DHT22;69529;37.974;23.708;2023-04-23T07:36:51;25.40;36.40
80210;DHT22;69529;37.974;23.708;2023-04-23T07:39:18;25.30;36.30
80210;DHT22;69529;37.974;23.708;2023-04-23T07:41:46;25.30;36.20
80210;DHT22;69529;37.974;23.708;2023-04-23T07:44:14;25.30;36.30
80210;DHT22;69529;37.974;23.708;2023-04-23T07:46:42;25.30;36.10
80210;DHT22;69529;37.974;23.708;2023-04-23T07:49:09;25.40;36.10
80210;DHT22;69529;37.974;23.708;2023-04-23T07:51:37;25.40;36.10
80210;DHT22;69529;37.974;23.708;2023-04-23T07:54:05;25.40;35.80
80210;DHT22;69529;37.974;23.708;2023-04-23T07:56:32;25.40;35.80
80210;DHT22;69529;37.974;23.708;2023-04-23T07:59:00;25.50;35.80
80210;DHT22;69529;37.974;23.708;2023-04-23T08:01:28;25.50;35.70
80210;DHT22;69529;37.974;23.708;2023-04-23T08:03:56;25.50;35.90
80210;DHT22;69529;37.974;23.708;2023-04-23T08:06:26;25.50;36.10
80210;DHT22;69529;37.974;23.708;2023-04-23T08:08:56;25.50;35.90
80210;DHT22;69529;37.974;23.708;2023-04-23T08:11:23;25.40;36.20
80210;DHT22;69529;37.974;23.708;2023-04-23T08:13:51;25.30;36.00
80210;DHT22;69529;37.974;23.708;2023-04-23T08:16:19;25.30;35.90
80210;DHT22;69529;37.974;23.708;2023-04-23T08:18:46;25.30;35.80
80210;DHT22;69529;37.974;23.708;2023-04-23T08:21:14;25.10;35.70
80210;DHT22;69529;37.974;23.708;2023-04-23T08:23:42;25.20;35.70
80210;DHT22;69529;37.974;23.708;2023-04-23T08:26:09;25.20;35.80
80210;DHT22;69529;37.974;23.708;2023-04-23T08:28:37;25.00;35.70
80210;DHT22;69529;37.974;23.708;2023-04-23T08:31:05;25.10;35.80
80210;DHT22;69529;37.974;23.708;2023-04-23T08:33:32;25.00;35.80
80210;DHT22;69529;37.974;23.708;2023-04-23T08:36:00;25.00;35.90
80210;DHT22;69529;37.974;23.708;2023-04-23T08:38:28;24.90;35.60
80210;DHT22;69529;37.974;23.708;2023-04-23T08:40:56;24.80;35.90
80210;DHT22;69529;37.974;23.708;2023-04-23T08:43:41;24.70;36.00
80210;DHT22;69529;37.974;23.708;2023-04-23T08:46:05;24.70;35.90
80210;DHT22;69529;37.974;23.708;2023-04-23T08:48:33;24.70;36.10
80210;DHT22;69529;37.974;23.708;2023-04-23T08:51:02;24.70;36.00
80210;DHT22;69529;37.974;23.708;2023-04-23T08:53:30;24.80;35.80
80210;DHT22;69529;37.974;23.708;2023-04-23T08:55:59;24.80;35.80
80210;DHT22;69529;37.974;23.708;2023-04-23T08:58:27;24.70;35.70
80210;DHT22;69529;37.974;23.708;2023-04-23T09:00:55;24.70;35.90
80210;DHT22;69529;37.974;23.708;2023-04-23T09:03:24;24.80;35.70
80210;DHT22;69529;37.974;23.708;2023-04-23T09:05:52;24.80;35.70
80210;DHT22;69529;37.974;23.708;2023-04-23T09:08:20;24.80;35.70
80210;DHT22;69529;37.974;23.708;2023-04-23T09:10:48;24.80;35.60
80210;DHT22;69529;37.974;23.708;2023-04-23T09:13:17;24.80;35.40
80210;DHT22;69529;37.974;23.708;2023-04-23T09:15:45;24.80;35.30
80210;DHT22;69529;37.974;23.708;2023-04-23T09:18:12;24.80;35.10
80210;DHT22;69529;37.974;23.708;2023-04-23T09:20:40;24.80;34.80
80210;DHT22;69529;37.974;23.708;2023-04-23T09:23:08;24.80;34.80
80210;DHT22;69529;37.974;23.708;2023-04-23T09:25:36;24.80;34.90
80210;DHT22;69529;37.974;23.708;2023-04-23T09:28:06;24.80;34.90
80210;DHT22;69529;37.974;23.708;2023-04-23T09:30:44;24.70;35.00
80210;DHT22;69529;37.974;23.708;2023-04-23T09:33:12;24.40;35.40
80210;DHT22;69529;37.974;23.708;2023-04-23T09:35:40;24.40;35.50
80210;DHT22;69529;37.974;23.708;2023-04-23T09:38:08;24.40;36.20
80210;DHT22;69529;37.974;23.708;2023-04-23T09:40:36;24.40;35.60
80210;DHT22;69529;37.974;23.708;2023-04-23T09:43:04;24.40;35.40
80210;DHT22;69529;37.974;23.708;2023-04-23T09:45:33;24.40;35.20
80210;DHT22;69529;37.974;23.708;2023-04-23T09:48:02;24.60;35.10
80210;DHT22;69529;37.974;23.708;2023-04-23T09:50:37;24.60;34.80
80210;DHT22;69529;37.974;23.708;2023-04-23T09:53:06;24.60;35.00
80210;DHT22;69529;37.974;23.708;2023-04-23T09:55:40;24.50;35.20
80210;DHT22;69529;37.974;23.708;2023-04-23T09:58:06;24.50;35.10
80210;DHT22;69529;37.974;23.708;2023-04-23T10:00:36;24.60;35.20
80210;DHT22;69529;37.974;23.708;2023-04-23T10:03:07;24.60;35.10
80210;DHT22;69529;37.974;23.708;2023-04-23T10:05:38;24.60;35.00
80210;DHT22;69529;37.974;23.708;2023-04-23T10:08:07;24.50;35.00
80210;DHT22;69529;37.974;23.708;2023-04-23T10:10:35;24.60;35.00
80210;DHT22;69529;37.974;23.708;2023-04-23T10:13:03;24.60;34.80
80210;DHT22;69529;37.974;23.708;2023-04-23T10:15:30;24.60;34.80
80210;DHT22;69529;37.974;23.708;2023-04-23T10:17:59;24.60;34.70
80210;DHT22;69529;37.974;23.708;2023-04-23T10:20:29;24.60;34.50
80210;DHT22;69529;37.974;23.708;2023-04-23T10:22:58;24.50;34.30
80210;DHT22;69529;37.974;23.708;2023-04-23T10:25:27;24.40;34.50
80210;DHT22;69529;37.974;23.708;2023-04-23T10:27:57;24.40;34.60
80210;DHT22;69529;37.974;23.708;2023-04-23T10:30:27;24.40;34.70
80210;DHT22;69529;37.974;23.708;2023-04-23T10:32:56;24.50;34.80
80210;DHT22;69529;37.974;23.708;2023-04-23T10:35:25;24.50;34.70
80210;DHT22;69529;37.974;23.708;2023-04-23T10:37:53;24.40;34.70
80210;DHT22;69529;37.974;23.708;2023-04-23T10:40:28;24.40;34.70
80210;DHT22;69529;37.974;23.708;2023-04-23T10:42:54;24.50;34.60
80210;DHT22;69529;37.974;23.708;2023-04-23T10:45:22;24.40;34.70
80210;DHT22;69529;37.974;23.708;2023-04-23T10:47:51;24.40;34.70
80210;DHT22;69529;37.974;23.708;2023-04-23T10:50:21;24.40;34.90
80210;DHT22;69529;37.974;23.708;2023-04-23T10:52:50;24.50;35.10
80210;DHT22;69529;37.974;23.708;2023-04-23T10:55:22;24.50;35.00
80210;DHT22;69529;37.974;23.708;2023-04-23T10:58:04;24.40;35.10
80210;DHT22;69529;37.974;23.708;2023-04-23T11:03:29;24.50;35.20
80210;DHT22;69529;37.974;23.708;2023-04-23T11:06:04;24.50;35.40
80210;DHT22;69529;37.974;23.708;2023-04-23T11:08:34;24.50;35.40
80210;DHT22;69529;37.974;23.708;2023-04-23T11:11:07;24.50;35.60
80210;DHT22;69529;37.974;23.708;2023-04-23T11:13:35;24.50;35.50
80210;DHT22;69529;37.974;23.708;2023-04-23T11:16:13;24.50;35.60
80210;DHT22;69529;37.974;23.708;2023-04-23T11:24:26;24.60;35.90
80210;DHT22;69529;37.974;23.708;2023-04-23T11:26:54;24.50;36.10
80210;DHT22;69529;37.974;23.708;2023-04-23T11:29:23;24.50;36.30
80210;DHT22;69529;37.974;23.708;2023-04-23T11:31:52;24.50;36.40
80210;DHT22;69529;37.974;23.708;2023-04-23T11:34:21;24.60;36.80
80210;DHT22;69529;37.974;23.708;2023-04-23T11:36:51;24.60;36.90
80210;DHT22;69529;37.974;23.708;2023-04-23T11:39:21;24.60;37.00
80210;DHT22;69529;37.974;23.708;2023-04-23T11:41:50;24.60;37.20
80210;DHT22;69529;37.974;23.708;2023-04-23T11:44:21;24.60;37.30
80210;DHT22;69529;37.974;23.708;2023-04-23T11:46:49;24.70;37.40
80210;DHT22;69529;37.974;23.708;2023-04-23T11:49:18;24.70;37.60
80210;DHT22;69529;37.974;23.708;2023-04-23T11:51:47;24.70;37.40
80210;DHT22;69529;37.974;23.708;2023-04-23T11:54:15;24.80;37.80
80210;DHT22;69529;37.974;23.708;2023-04-23T11:56:43;24.80;37.40
80210;DHT22;69529;37.974;23.708;2023-04-23T11:59:11;24.90;37.60
80210;DHT22;69529;37.974;23.708;2023-04-23T12:01:44;24.90;37.70
80210;DHT22;69529;37.974;23.708;2023-04-23T12:04:20;24.90;37.90
80210;DHT22;69529;37.974;23.708;2023-04-23T12:06:49;24.90;38.00
80210;DHT22;69529;37.974;23.708;2023-04-23T12:09:19;24.90;38.10
80210;DHT22;69529;37.974;23.708;2023-04-23T12:11:47;24.90;38.20
80210;DHT22;69529;37.974;23.708;2023-04-23T12:14:22;24.90;38.30
80210;DHT22;69529;37.974;23.708;2023-04-23T12:16:50;24.80;38.60
80210;DHT22;69529;37.974;23.708;2023-04-23T12:19:28;24.80;38.70
80210;DHT22;69529;37.974;23.708;2023-04-23T12:21:58;24.90;39.50
80210;DHT22;69529;37.974;23.708;2023-04-23T12:24:30;24.80;38.70
80210;DHT22;69529;37.974;23.708;2023-04-23T12:26:59;24.90;38.70
80210;DHT22;69529;37.974;23.708;2023-04-23T12:29:29;24.90;38.50
80210;DHT22;69529;37.974;23.708;2023-04-23T12:31:58;24.90;38.30
80210;DHT22;69529;37.974;23.708;2023-04-23T12:34:26;25.00;38.40
80210;DHT22;69529;37.974;23.708;2023-04-23T12:36:55;25.00;38.20
80210;DHT22;69529;37.974;23.708;2023-04-23T12:39:31;25.00;38.00
80210;DHT22;69529;37.974;23.708;2023-04-23T12:42:07;25.00;38.10
80210;DHT22;69529;37.974;23.708;2023-04-23T12:44:37;25.10;38.10
80210;DHT22;69529;37.974;23.708;2023-04-23T12:47:08;25.10;38.00
80210;DHT22;69529;37.974;23.708;2023-04-23T12:49:44;25.10;38.00
80210;DHT22;69529;37.974;23.708;2023-04-23T12:52:14;25.20;38.00
80210;DHT22;69529;37.974;23.708;2023-04-23T12:54:42;25.10;38.00
80210;DHT22;69529;37.974;23.708;2023-04-23T12:57:11;25.20;38.10
80210;DHT22;69529;37.974;23.708;2023-04-23T12:59:39;25.20;38.00
80210;DHT22;69529;37.974;23.708;2023-04-23T13:02:09;25.20;38.00
80210;DHT22;69529;37.974;23.708;2023-04-23T13:04:36;25.30;38.00
80210;DHT22;69529;37.974;23.708;2023-04-23T13:07:04;25.20;38.00
80210;DHT22;69529;37.974;23.708;2023-04-23T13:09:31;25.10;38.10
80210;DHT22;69529;37.974;23.708;2023-04-23T13:12:01;25.10;38.20
80210;DHT22;69529;37.974;23.708;2023-04-23T13:14:29;25.10;38.20
80210;DHT22;69529;37.974;23.708;2023-04-23T13:16:57;25.10;38.10
80210;DHT22;69529;37.974;23.708;2023-04-23T13:19:25;25.10;38.10
80210;DHT22;69529;37.974;23.708;2023-04-23T13:21:53;25.10;38.20
80210;DHT22;69529;37.974;23.708;2023-04-23T13:24:20;25.10;38.10
80210;DHT22;69529;37.974;23.708;2023-04-23T13:26:48;25.10;38.20
80210;DHT22;69529;37.974;23.708;2023-04-23T13:29:16;25.10;38.10
80210;DHT22;69529;37.974;23.708;2023-04-23T13:31:43;25.10;38.20
80210;DHT22;69529;37.974;23.708;2023-04-23T13:34:11;25.10;38.20
80210;DHT22;69529;37.974;23.708;2023-04-23T13:36:39;25.20;38.20
80210;DHT22;69529;37.974;23.708;2023-04-23T13:39:10;25.20;38.20
80210;DHT22;69529;37.974;23.708;2023-04-23T13:41:42;25.20;38.20
80210;DHT22;69529;37.974;23.708;2023-04-23T13:44:10;25.20;38.20
80210;DHT22;69529;37.974;23.708;2023-04-23T13:46:39;25.20;38.20
80210;DHT22;69529;37.974;23.708;2023-04-23T13:49:07;25.20;38.20
80210;DHT22;69529;37.974;23.708;2023-04-23T13:51:34;25.20;38.20
80210;DHT22;69529;37.974;23.708;2023-04-23T13:54:02;25.20;38.20
80210;DHT22;69529;37.974;23.708;2023-04-23T13:56:31;25.20;38.20
80210;DHT22;69529;37.974;23.708;2023-04-23T13:58:58;25.20;38.30
80210;DHT22;69529;37.974;23.708;2023-04-23T14:01:28;25.20;38.20
80210;DHT22;69529;37.974;23.708;2023-04-23T14:03:56;25.10;38.20
80210;DHT22;69529;37.974;23.708;2023-04-23T14:06:24;25.20;38.20
80210;DHT22;69529;37.974;23.708;2023-04-23T14:08:51;25.20;38.20
80210;DHT22;69529;37.974;23.708;2023-04-23T14:11:19;25.10;38.30
80210;DHT22;69529;37.974;23.708;2023-04-23T14:13:48;25.10;38.30
80210;DHT22;69529;37.974;23.708;2023-04-23T14:16:16;25.10;38.30
80210;DHT22;69529;37.974;23.708;2023-04-23T14:18:43;25.10;38.30
80210;DHT22;69529;37.974;23.708;2023-04-23T14:21:11;25.10;38.40
80210;DHT22;69529;37.974;23.708;2023-04-23T14:23:44;25.10;38.50
80210;DHT22;69529;37.974;23.708;2023-04-23T14:26:47;25.10;38.40
80210;DHT22;69529;37.974;23.708;2023-04-23T14:28:50;25.00;38.40
80210;DHT22;69529;37.974;23.708;2023-04-23T14:31:18;25.00;38.40
80210;DHT22;69529;37.974;23.708;2023-04-23T14:33:46;25.00;38.50
80210;DHT22;69529;37.974;23.708;2023-04-23T14:36:13;25.00;38.50
80210;DHT22;69529;37.974;23.708;2023-04-23T14:38:41;25.00;38.40
80210;DHT22;69529;37.974;23.708;2023-04-23T14:41:09;25.00;38.50
80210;DHT22;69529;37.974;23.708;2023-04-23T14:43:37;25.00;39.00
80210;DHT22;69529;37.974;23.708;2023-04-23T14:46:05;25.00;38.40
80210;DHT22;69529;37.974;23.708;2023-04-23T14:48:33;25.00;38.40
80210;DHT22;69529;37.974;23.708;2023-04-23T14:51:01;25.00;38.30
80210;DHT22;69529;37.974;23.708;2023-04-23T14:53:29;25.00;38.30
80210;DHT22;69529;37.974;23.708;2023-04-23T14:55:57;25.00;38.40
80210;DHT22;69529;37.974;23.708;2023-04-23T14:58:24;25.00;38.30
80210;DHT22;69529;37.974;23.708;2023-04-23T15:00:52;25.00;38.30
80210;DHT22;69529;37.974;23.708;2023-04-23T15:03:20;25.00;38.20
80210;DHT22;69529;37.974;23.708;2023-04-23T15:05:47;25.00;38.20
80210;DHT22;69529;37.974;23.708;2023-04-23T15:08:15;25.00;38.20
80210;DHT22;69529;37.974;23.708;2023-04-23T15:10:43;25.00;38.20
80210;DHT22;69529;37.974;23.708;2023-04-23T15:15:48;25.00;38.30
80210;DHT22;69529;37.974;23.708;2023-04-23T15:18:18;25.00;38.30
80210;DHT22;69529;37.974;23.708;2023-04-23T15:20:46;24.90;38.20
80210;DHT22;69529;37.974;23.708;2023-04-23T15:23:14;24.90;38.30
80210;DHT22;69529;37.974;23.708;2023-04-23T15:25:43;24.90;38.20
80210;DHT22;69529;37.974;23.708;2023-04-23T15:28:11;24.90;38.30
80210;DHT22;69529;37.974;23.708;2023-04-23T15:30:39;24.90;38.20
80210;DHT22;69529;37.974;23.708;2023-04-23T15:33:06;24.90;38.30